Catral, Spain
Current Conditions -  °F | °C
As of 1:00 PM on Thursday 30 Oct 2014 (Local Time) from LEAL Reporting Station
Few Clouds Few Clouds  
Wind Chill: 75°   Ceiling: Unl
Heat Index: 75°   Visibility: 6mi
Dew Point: 61°   Wind: 3mph
Humidity: 61%   Direction: 120°ESE
Pressure: 30.18"   Gusts: NA
Location:  38.16°N, 0.8°W
Report Text: LEAL 301200Z 12003KT 080V200 9999 FEW020 24/16 Q1022 NOSIG
Loading
Personal Weather Stations






























Interactive Weather Map
Tropical Storm Tracking
New forecast layout! Learn more

10-Day Weather Forecast

Advertisements
Track Severe Weather on mobile